createdAt,value
2023-10-05T00:03:55.857Z,100696.25
2023-10-05T00:08:57.573Z,100681.63
2023-10-05T00:14:00.988Z,100752.81
2023-10-05T00:19:07.150Z,100810.31
2023-10-05T00:24:09.313Z,100730.69
2023-10-05T00:29:19.973Z,100737.44
2023-10-05T00:34:21.611Z,100700.88
2023-10-05T00:39:24.036Z,100647.94
2023-10-05T00:44:26.092Z,100620.34
2023-10-05T00:49:31.848Z,100631.72
2023-10-05T00:54:35.554Z,100697.19
2023-10-05T00:59:37.459Z,100654.47
2023-10-05T01:04:54.524Z,100649.44
2023-10-05T01:10:02.263Z,100678.59
2023-10-05T01:15:07.934Z,100724.16
2023-10-05T01:20:13.838Z,100635.06
2023-10-05T01:25:16.332Z,100692.78
2023-10-05T01:30:18.400Z,100647.44
2023-10-05T01:35:20.259Z,100629.19
2023-10-05T01:40:22.258Z,100731.97
2023-10-05T01:45:29.865Z,100693.78
2023-10-05T01:50:33.642Z,100680.38
2023-10-05T01:55:36.142Z,100666.19
2023-10-05T02:00:40.409Z,100732.69
2023-10-05T02:05:43.053Z,100687.34
2023-10-05T02:10:47.862Z,100637.72
2023-10-05T02:15:54.813Z,100686.09
2023-10-05T02:21:08.765Z,100657.63
2023-10-05T02:26:37.887Z,100652.47
2023-10-05T02:31:51.530Z,100696.50
2023-10-05T02:36:56.164Z,100595.19
2023-10-05T02:41:58.125Z,100699.31
2023-10-05T02:47:00.393Z,100658.00
2023-10-05T02:52:05.345Z,100579.97
2023-10-05T02:57:12.337Z,100698.19
2023-10-05T03:02:18.262Z,100625.47
2023-10-05T03:07:20.576Z,100719.94
2023-10-05T03:12:22.451Z,100711.72
2023-10-05T03:17:27.668Z,100672.59
2023-10-05T03:22:30.204Z,100718.56
2023-10-05T03:27:32.150Z,100752.78
2023-10-05T03:32:36.913Z,100686.94
2023-10-05T03:37:43.076Z,100693.31
2023-10-05T03:42:47.673Z,100691.00
2023-10-05T03:47:50.624Z,100784.94
2023-10-05T03:52:52.310Z,100704.38
2023-10-05T03:57:54.209Z,100766.13
2023-10-05T04:02:56.402Z,100727.06
2023-10-05T04:08:12.329Z,100766.28
2023-10-05T04:13:25.434Z,100724.78
2023-10-05T04:18:27.372Z,100792.78
2023-10-05T04:23:29.362Z,100694.59
2023-10-05T04:28:34.279Z,100737.47
2023-10-05T04:33:35.980Z,100729.31
2023-10-05T04:38:37.736Z,100750.81
2023-10-05T04:43:40.735Z,100702.81
2023-10-05T04:48:49.587Z,100689.38
2023-10-05T04:53:55.333Z,100788.22
2023-10-05T05:05:34.307Z,100632.59
2023-10-05T05:10:37.325Z,100576.59
2023-10-05T05:15:39.631Z,100618.72
2023-10-05T05:20:42.116Z,100695.75
2023-10-05T05:25:45.484Z,100695.16
2023-10-05T05:30:48.517Z,100810.63
2023-10-05T05:35:50.968Z,100663.41
2023-10-05T05:40:54.664Z,100720.03
2023-10-05T05:45:56.399Z,100826.69
2023-10-05T05:50:58.729Z,100728.50
2023-10-05T05:56:02.425Z,100648.13
2023-10-05T06:01:05.096Z,100669.72
2023-10-05T06:06:07.460Z,100796.84
2023-10-05T06:11:09.955Z,100744.97
2023-10-05T06:16:11.781Z,100670.28
2023-10-05T06:21:13.858Z,100700.72
2023-10-05T06:26:15.490Z,100766.97
2023-10-05T06:31:17.544Z,100708.72
2023-10-05T06:36:26.389Z,100805.00
2023-10-05T06:41:28.513Z,100806.44
2023-10-05T06:46:30.888Z,100817.03
2023-10-05T06:51:32.848Z,100768.22
2023-10-05T06:56:34.513Z,100776.97
2023-10-05T07:01:36.251Z,100694.16
2023-10-05T07:06:38.165Z,100757.59
2023-10-05T07:11:39.847Z,100860.91
2023-10-05T07:16:41.478Z,100843.22
2023-10-05T07:21:43.294Z,100793.88
2023-10-05T07:26:45.080Z,100814.06
2023-10-05T07:31:46.775Z,100780.53
2023-10-05T07:36:48.496Z,100777.97
2023-10-05T07:41:51.000Z,100940.28
2023-10-05T07:46:52.778Z,100939.75
2023-10-05T07:51:54.470Z,100823.41
2023-10-05T07:56:56.252Z,100945.59
2023-10-05T08:02:01.684Z,100896.94
2023-10-05T08:07:04.177Z,100791.81
2023-10-05T08:12:05.913Z,100963.06
2023-10-05T08:17:07.673Z,100919.28
2023-10-05T08:22:10.790Z,100847.44
2023-10-05T08:27:15.403Z,100918.63
2023-10-05T08:32:17.811Z,101033.75
2023-10-05T08:37:23.476Z,100956.50
2023-10-05T08:42:27.461Z,100831.94
2023-10-05T08:47:29.854Z,100910.06
2023-10-05T08:52:37.089Z,100988.56
2023-10-05T08:57:38.700Z,100905.66
2023-10-05T09:02:42.154Z,100942.06
2023-10-05T09:07:44.695Z,100924.47
2023-10-05T09:12:59.507Z,100945.31
2023-10-05T09:18:18.336Z,100953.13
2023-10-05T09:23:26.199Z,100966.28
2023-10-05T09:28:34.249Z,100908.63
2023-10-05T09:33:47.752Z,100998.41
2023-10-05T09:38:50.302Z,100989.25
2023-10-05T09:44:06.293Z,100980.63
2023-10-05T09:49:10.424Z,100907.22
2023-10-05T09:54:13.973Z,101027.94
2023-10-05T09:59:17.456Z,101026.94
2023-10-05T10:04:41.222Z,101068.38
2023-10-05T10:09:48.399Z,100964.75
2023-10-05T10:14:51.455Z,100910.69
2023-10-05T10:19:56.574Z,100977.22
2023-10-05T10:24:58.569Z,100991.16
2023-10-05T10:30:02.416Z,101023.09
2023-10-05T10:35:27.258Z,100993.84
2023-10-05T10:40:29.152Z,100963.25
2023-10-05T10:45:37.461Z,100995.03
2023-10-05T10:50:39.804Z,100974.69
2023-10-05T10:55:47.894Z,100994.50
2023-10-05T11:06:18.124Z,100952.28
2023-10-05T11:11:24.544Z,100959.47
2023-10-05T11:16:51.256Z,100930.78
2023-10-05T11:21:53.049Z,100861.75
2023-10-05T11:26:57.195Z,100852.09
2023-10-05T11:32:40.015Z,100903.13
2023-10-05T11:37:41.387Z,100843.47
2023-10-05T11:42:43.270Z,100883.78
2023-10-05T11:47:55.418Z,100929.06
2023-10-05T11:52:57.117Z,100980.59
2023-10-05T11:57:58.697Z,100968.19
2023-10-05T12:03:00.417Z,100949.50
2023-10-05T12:08:02.117Z,100981.13
2023-10-05T12:13:04.018Z,100917.81
2023-10-05T12:18:14.223Z,100868.09
2023-10-05T12:23:16.436Z,100887.59
2023-10-05T12:28:24.678Z,100954.63
2023-10-05T12:33:26.479Z,100976.09
2023-10-05T12:38:28.162Z,100934.19
2023-10-05T12:43:30.468Z,100885.75
2023-10-05T12:48:32.131Z,100955.94
2023-10-05T12:53:34.800Z,100950.72
2023-10-05T12:58:36.419Z,100888.38
2023-10-05T13:03:38.120Z,100970.97
2023-10-05T13:08:44.846Z,100926.72
2023-10-05T13:13:46.845Z,100910.69
2023-10-05T13:18:51.752Z,100881.25
2023-10-05T13:23:56.115Z,100867.19
2023-10-05T13:29:02.836Z,100921.16
2023-10-05T13:34:04.939Z,100869.19
2023-10-05T13:39:22.026Z,100886.66
2023-10-05T13:44:23.798Z,100954.72
2023-10-05T13:49:30.087Z,100884.22
2023-10-05T13:54:32.134Z,100871.84
2023-10-05T13:59:33.834Z,100861.94
2023-10-05T14:04:39.645Z,100868.22
2023-10-05T14:09:49.169Z,100823.28
2023-10-05T14:14:50.816Z,100834.69
2023-10-05T14:19:53.278Z,100829.09
2023-10-05T14:24:55.032Z,100852.75
2023-10-05T14:29:56.688Z,100785.41
2023-10-05T14:35:03.918Z,100854.16
2023-10-05T14:40:06.883Z,100780.16
2023-10-05T14:45:09.406Z,100909.22
2023-10-05T14:50:14.981Z,100851.28
2023-10-05T14:55:18.454Z,100885.22
2023-10-05T15:00:20.148Z,100805.44
2023-10-05T15:05:21.809Z,100910.66
2023-10-05T15:10:25.991Z,100869.63
2023-10-05T15:15:27.792Z,100867.63
2023-10-05T15:20:29.469Z,100946.50
2023-10-05T15:25:31.758Z,100854.72
2023-10-05T15:30:34.551Z,100874.72
2023-10-05T15:35:36.388Z,100876.66
2023-10-05T15:40:38.834Z,100812.47
2023-10-05T15:45:41.790Z,100807.19
2023-10-05T15:50:44.711Z,100862.94
2023-10-05T15:55:46.632Z,100864.56
2023-10-05T16:00:48.321Z,100836.66
2023-10-05T16:05:50.033Z,100845.53
2023-10-05T16:10:52.094Z,100879.78
2023-10-05T16:15:53.865Z,100869.69
2023-10-05T16:20:55.552Z,100890.53
2023-10-05T16:25:57.989Z,100880.38
2023-10-05T16:31:01.798Z,100854.75
2023-10-05T16:36:03.638Z,100844.34
2023-10-05T16:41:06.017Z,100853.16
2023-10-05T16:46:10.154Z,100870.34
2023-10-05T16:51:12.010Z,100855.63
2023-10-05T16:56:13.661Z,100946.94
2023-10-05T17:01:16.310Z,100915.66
2023-10-05T17:06:18.067Z,100813.72
2023-10-05T17:11:19.660Z,100878.00
2023-10-05T17:16:21.573Z,100896.69
2023-10-05T17:21:23.543Z,100878.69
2023-10-05T17:26:25.505Z,100777.50
2023-10-05T17:31:27.283Z,100839.00
2023-10-05T17:36:29.059Z,100809.31
2023-10-05T17:41:30.839Z,100919.44
2023-10-05T17:46:32.488Z,100763.13
2023-10-05T17:51:34.591Z,100868.72
2023-10-05T17:56:36.239Z,100759.22
2023-10-05T18:01:38.191Z,100827.38
2023-10-05T18:06:39.984Z,100796.09
2023-10-05T18:11:41.762Z,100786.50
2023-10-05T18:16:47.740Z,100829.06
2023-10-05T18:21:49.678Z,100820.19
2023-10-05T18:26:51.366Z,100799.41
2023-10-05T18:31:53.218Z,100851.59
2023-10-05T18:36:54.941Z,100835.66
2023-10-05T18:41:56.765Z,100737.03
2023-10-05T18:46:58.450Z,100815.69
2023-10-05T18:52:00.142Z,100882.81
2023-10-05T18:57:02.722Z,100803.81
2023-10-05T19:02:04.999Z,100847.03
2023-10-05T19:07:07.948Z,100826.63
2023-10-05T19:12:09.627Z,100902.03
2023-10-05T19:17:11.290Z,100783.84
2023-10-05T19:22:16.902Z,100855.78
2023-10-05T19:27:18.988Z,100781.34
2023-10-05T19:32:20.701Z,100960.94
2023-10-05T19:37:22.515Z,100866.94
2023-10-05T19:42:24.606Z,100790.19
2023-10-05T19:47:26.485Z,100813.44
2023-10-05T19:52:29.302Z,100739.31
2023-10-05T19:57:33.556Z,100814.09
2023-10-05T20:02:35.947Z,100857.03
2023-10-05T20:07:37.765Z,100876.28
2023-10-05T20:12:39.381Z,100751.66
2023-10-05T20:17:41.156Z,100917.63
2023-10-05T20:22:43.199Z,100849.53
2023-10-05T20:27:45.774Z,100861.66
2023-10-05T20:32:47.468Z,100771.25
2023-10-05T20:37:49.083Z,100896.16
2023-10-05T20:42:50.741Z,100770.59
2023-10-05T20:47:52.728Z,100819.34
2023-10-05T20:52:55.688Z,100945.63
2023-10-05T20:57:57.497Z,100829.97
2023-10-05T21:02:59.176Z,100809.13
2023-10-05T21:08:02.863Z,100794.75
2023-10-05T21:13:04.885Z,100735.56
2023-10-05T21:18:06.811Z,100779.09
2023-10-05T21:23:08.593Z,100878.19
2023-10-05T21:28:10.261Z,100777.69
2023-10-05T21:33:13.115Z,100915.03
2023-10-05T21:38:14.801Z,100842.34
2023-10-05T21:43:16.380Z,100927.41
2023-10-05T21:48:18.153Z,100863.84
2023-10-05T21:53:19.836Z,100816.81
2023-10-05T21:58:21.575Z,100866.66
2023-10-05T22:03:23.464Z,100949.44
2023-10-05T22:08:25.313Z,100903.09
2023-10-05T22:13:28.160Z,100879.66
2023-10-05T22:18:30.635Z,100873.13
2023-10-05T22:23:32.958Z,100900.72
2023-10-05T22:28:35.259Z,100939.59
2023-10-05T22:33:37.019Z,100897.47
2023-10-05T22:38:44.210Z,100784.53
2023-10-05T22:43:46.759Z,100835.03
2023-10-05T22:48:48.483Z,100788.66
2023-10-05T22:53:50.548Z,100770.41
2023-10-05T22:58:52.185Z,100942.38
2023-10-05T23:03:53.942Z,100892.94
2023-10-05T23:08:57.336Z,100865.03
2023-10-05T23:13:59.609Z,100827.03
2023-10-05T23:19:01.652Z,100737.50
2023-10-05T23:24:04.824Z,100944.72
2023-10-05T23:29:08.680Z,100883.97
2023-10-05T23:34:14.072Z,100886.88
2023-10-05T23:39:22.932Z,100851.72
2023-10-05T23:44:26.197Z,100929.28
2023-10-05T23:49:28.447Z,100808.97
2023-10-05T23:54:30.770Z,100951.59
2023-10-05T23:59:32.455Z,100942.38
